sensor_id;sensor_type;location;lat;lon;timestamp;pressure;altitude;pressure_sealevel;temperature;humidity
49341;BME280;35209;51.050;13.678;2024-03-29T00:02:22;150734.22;;;8.20;66.29
49341;BME280;35209;51.050;13.678;2024-03-29T00:07:22;150722.63;;;8.16;66.29
49341;BME280;35209;51.050;13.678;2024-03-29T00:12:23;150699.44;;;8.06;66.66
49341;BME280;35209;51.050;13.678;2024-03-29T00:17:24;150752.22;;;8.27;65.45
49341;BME280;35209;51.050;13.678;2024-03-29T00:22:25;150763.84;;;8.32;65.36
49341;BME280;35209;51.050;13.678;2024-03-29T00:27:26;150727.75;;;8.18;65.61
49341;BME280;35209;51.050;13.678;2024-03-29T00:32:28;150707.13;;;8.09;66.61
49341;BME280;35209;51.050;13.678;2024-03-29T00:37:29;150690.41;;;8.03;66.25
49341;BME280;35209;51.050;13.678;2024-03-29T00:42:30;150674.91;;;7.97;66.43
49341;BME280;35209;51.050;13.678;2024-03-29T00:47:31;150653.03;;;7.88;67.22
49341;BME280;35209;51.050;13.678;2024-03-29T00:52:32;150712.31;;;8.12;65.52
49341;BME280;35209;51.050;13.678;2024-03-29T00:57:32;150698.16;;;8.06;65.88
49341;BME280;35209;51.050;13.678;2024-03-29T01:02:33;150655.59;;;7.89;66.62
49341;BME280;35209;51.050;13.678;2024-03-29T01:07:34;150647.88;;;7.86;66.80
49341;BME280;35209;51.050;13.678;2024-03-29T01:12:36;150655.59;;;7.89;66.44
49341;BME280;35209;51.050;13.678;2024-03-29T01:17:36;150638.84;;;7.82;66.61
49341;BME280;35209;51.050;13.678;2024-03-29T01:22:37;150620.84;;;7.75;67.18
49341;BME280;35209;51.050;13.678;2024-03-29T01:27:38;150623.41;;;7.76;66.77
49341;BME280;35209;51.050;13.678;2024-03-29T01:32:39;150631.13;;;7.79;66.53
49341;BME280;35209;51.050;13.678;2024-03-29T01:37:39;150622.13;;;7.76;66.78
49341;BME280;35209;51.050;13.678;2024-03-29T01:42:40;150593.75;;;7.65;66.65
49341;BME280;35209;51.050;13.678;2024-03-29T01:47:41;150589.91;;;7.63;67.28
49341;BME280;35209;51.050;13.678;2024-03-29T01:52:42;150507.47;;;7.30;68.78
49341;BME280;35209;51.050;13.678;2024-03-29T01:57:43;150436.63;;;7.02;70.32
49341;BME280;35209;51.050;13.678;2024-03-29T02:02:44;150430.22;;;7.00;70.26
49341;BME280;35209;51.050;13.678;2024-03-29T02:07:46;150372.22;;;6.77;71.39
49341;BME280;35209;51.050;13.678;2024-03-29T02:12:49;150364.53;;;6.74;71.79
49341;BME280;35209;51.050;13.678;2024-03-29T02:17:50;150409.59;;;6.92;71.13
49341;BME280;35209;51.050;13.678;2024-03-29T02:23:14;150337.47;;;6.63;71.67
49341;BME280;35209;51.050;13.678;2024-03-29T02:28:16;150297.59;;;6.47;72.46
49341;BME280;35209;51.050;13.678;2024-03-29T02:33:17;150300.19;;;6.48;72.03
49341;BME280;35209;51.050;13.678;2024-03-29T02:38:18;150269.28;;;6.36;72.43
49341;BME280;35209;51.050;13.678;2024-03-29T02:43:19;150237.09;;;6.23;72.91
49341;BME280;35209;51.050;13.678;2024-03-29T02:48:20;150233.25;;;6.22;73.85
49341;BME280;35209;51.050;13.678;2024-03-29T02:53:21;150202.34;;;6.10;74.26
49341;BME280;35209;51.050;13.678;2024-03-29T02:58:21;150207.53;;;6.12;75.08
49341;BME280;35209;51.050;13.678;2024-03-29T03:03:26;150293.72;;;6.46;75.45
49341;BME280;35209;51.050;13.678;2024-03-29T03:08:27;150207.53;;;6.12;76.62
49341;BME280;35209;51.050;13.678;2024-03-29T03:13:46;150222.97;;;6.18;76.94
49341;BME280;35209;51.050;13.678;2024-03-29T03:18:47;150135.41;;;5.83;77.71
49341;BME280;35209;51.050;13.678;2024-03-29T03:23:47;150071.09;;;5.57;78.88
49341;BME280;35209;51.050;13.678;2024-03-29T03:28:48;150024.78;;;5.39;79.52
49341;BME280;35209;51.050;13.678;2024-03-29T03:33:49;149999.09;;;5.29;80.68
49341;BME280;35209;51.050;13.678;2024-03-29T03:38:50;150055.66;;;5.51;79.82
49341;BME280;35209;51.050;13.678;2024-03-29T03:43:50;150101.97;;;5.70;78.87
49341;BME280;35209;51.050;13.678;2024-03-29T03:48:51;150127.72;;;5.80;78.94
49341;BME280;35209;51.050;13.678;2024-03-29T03:53:52;150140.59;;;5.85;79.25
49341;BME280;35209;51.050;13.678;2024-03-29T03:58:52;150094.28;;;5.67;80.05
49341;BME280;35209;51.050;13.678;2024-03-29T04:03:53;150069.81;;;5.57;81.03
49341;BME280;35209;51.050;13.678;2024-03-29T04:08:54;150036.38;;;5.44;80.82
49341;BME280;35209;51.050;13.678;2024-03-29T04:13:55;150022.22;;;5.38;80.75
49341;BME280;35209;51.050;13.678;2024-03-29T04:18:55;150045.38;;;5.47;81.02
49341;BME280;35209;51.050;13.678;2024-03-29T04:23:56;149993.97;;;5.27;81.57
49341;BME280;35209;51.050;13.678;2024-03-29T04:28:57;149968.22;;;5.17;82.18
49341;BME280;35209;51.050;13.678;2024-03-29T04:33:58;150047.94;;;5.48;82.25
49341;BME280;35209;51.050;13.678;2024-03-29T04:38:59;150060.84;;;5.53;81.17
49341;BME280;35209;51.050;13.678;2024-03-29T04:44:03;150022.22;;;5.38;82.80
49341;BME280;35209;51.050;13.678;2024-03-29T04:49:04;150068.53;;;5.56;82.50
49341;BME280;35209;51.050;13.678;2024-03-29T04:54:05;150058.22;;;5.52;80.96
49341;BME280;35209;51.050;13.678;2024-03-29T04:59:06;150090.41;;;5.65;80.28
49341;BME280;35209;51.050;13.678;2024-03-29T05:04:08;150152.16;;;5.90;78.38
49341;BME280;35209;51.050;13.678;2024-03-29T05:09:08;150144.41;;;5.87;78.22
49341;BME280;35209;51.050;13.678;2024-03-29T05:14:13;150158.63;;;5.92;78.14
49341;BME280;35209;51.050;13.678;2024-03-29T05:19:14;150252.56;;;6.29;76.74
49341;BME280;35209;51.050;13.678;2024-03-29T05:24:15;150265.44;;;6.35;76.67
49341;BME280;35209;51.050;13.678;2024-03-29T05:29:17;150302.75;;;6.49;76.27
49341;BME280;35209;51.050;13.678;2024-03-29T05:34:18;150319.50;;;6.56;75.40
49341;BME280;35209;51.050;13.678;2024-03-29T05:39:19;150355.53;;;6.70;76.11
49341;BME280;35209;51.050;13.678;2024-03-29T05:44:20;150428.88;;;6.99;74.67
49341;BME280;35209;51.050;13.678;2024-03-29T05:49:21;150404.44;;;6.90;75.92
49341;BME280;35209;51.050;13.678;2024-03-29T05:54:21;150395.41;;;6.86;75.62
49341;BME280;35209;51.050;13.678;2024-03-29T05:59:23;150396.75;;;6.87;76.20
49341;BME280;35209;51.050;13.678;2024-03-29T06:04:24;150385.16;;;6.82;76.63
49341;BME280;35209;51.050;13.678;2024-03-29T06:09:31;150422.47;;;6.97;77.08
49341;BME280;35209;51.050;13.678;2024-03-29T06:14:34;150427.59;;;6.99;76.81
49341;BME280;35209;51.050;13.678;2024-03-29T06:19:54;150485.59;;;7.22;75.59
49341;BME280;35209;51.050;13.678;2024-03-29T06:24:57;150507.47;;;7.30;76.03
49341;BME280;35209;51.050;13.678;2024-03-29T06:30:05;150558.97;;;7.51;75.03
49341;BME280;35209;51.050;13.678;2024-03-29T06:35:06;150551.22;;;7.48;73.51
49341;BME280;35209;51.050;13.678;2024-03-29T06:40:08;150651.72;;;7.88;72.14
49341;BME280;35209;51.050;13.678;2024-03-29T06:45:09;150669.78;;;7.95;72.37
49341;BME280;35209;51.050;13.678;2024-03-29T06:50:10;150672.34;;;7.96;71.71
49341;BME280;35209;51.050;13.678;2024-03-29T06:55:11;150681.38;;;7.99;72.22
49341;BME280;35209;51.050;13.678;2024-03-29T07:00:13;150790.97;;;8.43;69.68
49341;BME280;35209;51.050;13.678;2024-03-29T07:05:14;150861.88;;;8.71;67.52
49341;BME280;35209;51.050;13.678;2024-03-29T07:10:15;150903.13;;;8.87;68.19
49341;BME280;35209;51.050;13.678;2024-03-29T07:15:15;150899.28;;;8.86;67.05
49341;BME280;35209;51.050;13.678;2024-03-29T07:20:16;150935.38;;;9.00;66.75
49341;BME280;35209;51.050;13.678;2024-03-29T07:25:17;150968.91;;;9.13;64.32
49341;BME280;35209;51.050;13.678;2024-03-29T07:30:18;150962.44;;;9.10;65.40
49341;BME280;35209;51.050;13.678;2024-03-29T07:35:19;150952.13;;;9.06;64.84
49341;BME280;35209;51.050;13.678;2024-03-29T07:40:20;150962.44;;;9.10;64.86
49341;BME280;35209;51.050;13.678;2024-03-29T07:45:21;151047.59;;;9.44;63.27
49341;BME280;35209;51.050;13.678;2024-03-29T07:50:22;151064.34;;;9.51;62.52
49341;BME280;35209;51.050;13.678;2024-03-29T07:55:22;151092.75;;;9.62;62.39
49341;BME280;35209;51.050;13.678;2024-03-29T08:00:25;151072.09;;;9.54;63.57
49341;BME280;35209;51.050;13.678;2024-03-29T08:05:27;151163.72;;;9.90;60.97
49341;BME280;35209;51.050;13.678;2024-03-29T08:10:27;151198.53;;;10.04;61.25
49341;BME280;35209;51.050;13.678;2024-03-29T08:15:28;151197.25;;;10.03;61.56
49341;BME280;35209;51.050;13.678;2024-03-29T08:20:29;151203.75;;;10.06;60.86
49341;BME280;35209;51.050;13.678;2024-03-29T08:25:30;151226.97;;;10.15;60.96
49341;BME280;35209;51.050;13.678;2024-03-29T08:30:31;151298.00;;;10.43;60.25
49341;BME280;35209;51.050;13.678;2024-03-29T08:35:37;151299.28;;;10.44;59.73
49341;BME280;35209;51.050;13.678;2024-03-29T08:40:39;151290.22;;;10.40;59.62
49341;BME280;35209;51.050;13.678;2024-03-29T08:45:42;151290.22;;;10.40;62.34
49341;BME280;35209;51.050;13.678;2024-03-29T08:50:43;151388.38;;;10.79;61.29
49341;BME280;35209;51.050;13.678;2024-03-29T08:55:46;151431.00;;;10.96;62.36
49341;BME280;35209;51.050;13.678;2024-03-29T09:00:54;151465.88;;;11.09;59.42
49341;BME280;35209;51.050;13.678;2024-03-29T09:05:55;151486.56;;;11.18;60.01
49341;BME280;35209;51.050;13.678;2024-03-29T09:10:56;151549.88;;;11.43;58.84
49341;BME280;35209;51.050;13.678;2024-03-29T09:15:59;151631.25;;;11.75;56.86
49341;BME280;35209;51.050;13.678;2024-03-29T09:21:00;151818.75;;;12.49;48.48
49341;BME280;35209;51.050;13.678;2024-03-29T09:26:04;151949.34;;;13.00;44.56
49341;BME280;35209;51.050;13.678;2024-03-29T09:31:05;151990.75;;;13.17;42.92
49341;BME280;35209;51.050;13.678;2024-03-29T09:36:06;152050.31;;;13.40;41.22
49341;BME280;35209;51.050;13.678;2024-03-29T09:41:11;152111.16;;;13.64;41.62
49341;BME280;35209;51.050;13.678;2024-03-29T09:46:15;152166.81;;;13.86;39.31
49341;BME280;35209;51.050;13.678;2024-03-29T09:51:17;152175.81;;;13.89;40.33
49341;BME280;35209;51.050;13.678;2024-03-29T09:56:20;152197.84;;;13.98;41.62
49341;BME280;35209;51.050;13.678;2024-03-29T10:01:22;152120.16;;;13.68;41.19
49341;BME280;35209;51.050;13.678;2024-03-29T10:06:23;152129.25;;;13.71;42.48
49341;BME280;35209;51.050;13.678;2024-03-29T10:11:25;152103.38;;;13.61;40.75
49341;BME280;35209;51.050;13.678;2024-03-29T10:16:26;152102.09;;;13.60;40.42
49341;BME280;35209;51.050;13.678;2024-03-29T10:21:30;152108.53;;;13.63;40.66
49341;BME280;35209;51.050;13.678;2024-03-29T10:26:30;152139.59;;;13.75;42.41
49341;BME280;35209;51.050;13.678;2024-03-29T10:31:35;152201.75;;;14.00;40.74
49341;BME280;35209;51.050;13.678;2024-03-29T10:36:39;152292.38;;;14.35;40.17
49341;BME280;35209;51.050;13.678;2024-03-29T10:41:41;152342.91;;;14.55;39.17
49341;BME280;35209;51.050;13.678;2024-03-29T10:46:42;152442.63;;;14.95;39.21
49341;BME280;35209;51.050;13.678;2024-03-29T10:51:43;152503.53;;;15.19;39.15
49341;BME280;35209;51.050;13.678;2024-03-29T10:56:47;152564.41;;;15.43;39.89
49341;BME280;35209;51.050;13.678;2024-03-29T11:01:56;152574.78;;;15.47;37.69
49341;BME280;35209;51.050;13.678;2024-03-29T11:07:03;152607.19;;;15.59;38.39
49341;BME280;35209;51.050;13.678;2024-03-29T11:12:08;152609.78;;;15.60;36.38
49341;BME280;35209;51.050;13.678;2024-03-29T11:17:11;152563.13;;;15.42;37.26
49341;BME280;35209;51.050;13.678;2024-03-29T11:22:15;152559.25;;;15.41;36.57
49341;BME280;35209;51.050;13.678;2024-03-29T11:27:16;152533.31;;;15.30;36.92
49341;BME280;35209;51.050;13.678;2024-03-29T11:32:34;152561.84;;;15.42;36.21
49341;BME280;35209;51.050;13.678;2024-03-29T11:37:36;152583.88;;;15.50;36.55
49341;BME280;35209;51.050;13.678;2024-03-29T11:42:47;152583.88;;;15.50;35.80
49341;BME280;35209;51.050;13.678;2024-03-29T11:47:49;152598.09;;;15.56;37.19
49341;BME280;35209;51.050;13.678;2024-03-29T11:52:51;152612.34;;;15.61;37.24
49341;BME280;35209;51.050;13.678;2024-03-29T11:57:53;152599.41;;;15.56;38.56
49341;BME280;35209;51.050;13.678;2024-03-29T12:02:54;152653.88;;;15.78;37.22
49341;BME280;35209;51.050;13.678;2024-03-29T12:07:54;152655.19;;;15.78;38.05
49341;BME280;35209;51.050;13.678;2024-03-29T12:12:59;152664.25;;;15.82;39.32
49341;BME280;35209;51.050;13.678;2024-03-29T12:18:02;152721.28;;;16.04;37.31
49341;BME280;35209;51.050;13.678;2024-03-29T12:23:05;152762.78;;;16.21;39.62
49341;BME280;35209;51.050;13.678;2024-03-29T12:28:06;152758.88;;;16.19;36.69
49341;BME280;35209;51.050;13.678;2024-03-29T12:33:13;152721.28;;;16.04;37.14
49341;BME280;35209;51.050;13.678;2024-03-29T12:38:16;152707.03;;;15.99;38.29
49341;BME280;35209;51.050;13.678;2024-03-29T12:43:22;152673.34;;;15.85;40.53
49341;BME280;35209;51.050;13.678;2024-03-29T12:48:23;152672.06;;;15.85;41.04
49341;BME280;35209;51.050;13.678;2024-03-29T12:53:24;152669.41;;;15.84;40.31
49341;BME280;35209;51.050;13.678;2024-03-29T12:58:25;152712.22;;;16.01;39.24
49341;BME280;35209;51.050;13.678;2024-03-29T13:03:25;152756.28;;;16.18;38.87
49341;BME280;35209;51.050;13.678;2024-03-29T13:08:28;152800.38;;;16.35;37.67
49341;BME280;35209;51.050;13.678;2024-03-29T13:13:29;152879.47;;;16.67;37.22
49341;BME280;35209;51.050;13.678;2024-03-29T13:18:30;152913.25;;;16.80;38.81
49341;BME280;35209;51.050;13.678;2024-03-29T13:23:30;152837.97;;;16.50;39.84
49341;BME280;35209;51.050;13.678;2024-03-29T13:28:33;152806.88;;;16.38;40.76
49341;BME280;35209;51.050;13.678;2024-03-29T13:33:34;152825.00;;;16.45;40.68
49341;BME280;35209;51.050;13.678;2024-03-29T13:38:35;152783.50;;;16.29;42.29
49341;BME280;35209;51.050;13.678;2024-03-29T13:43:35;152832.78;;;16.48;43.36
49341;BME280;35209;51.050;13.678;2024-03-29T13:48:39;152871.69;;;16.63;41.56
49341;BME280;35209;51.050;13.678;2024-03-29T13:53:42;152839.25;;;16.51;44.09
49341;BME280;35209;51.050;13.678;2024-03-29T13:58:43;152844.47;;;16.53;40.78
49341;BME280;35209;51.050;13.678;2024-03-29T14:03:43;152813.34;;;16.40;41.82
49341;BME280;35209;51.050;13.678;2024-03-29T14:08:44;152852.25;;;16.56;41.26
49341;BME280;35209;51.050;13.678;2024-03-29T14:13:45;152795.16;;;16.33;43.28
49341;BME280;35209;51.050;13.678;2024-03-29T14:18:49;152780.91;;;16.28;42.92
49341;BME280;35209;51.050;13.678;2024-03-29T14:23:50;152792.56;;;16.32;42.59
49341;BME280;35209;51.050;13.678;2024-03-29T14:28:51;152801.66;;;16.36;42.64
49341;BME280;35209;51.050;13.678;2024-03-29T14:33:52;152774.47;;;16.25;44.09
49341;BME280;35209;51.050;13.678;2024-03-29T14:38:52;152742.03;;;16.12;45.24
49341;BME280;35209;51.050;13.678;2024-03-29T14:43:55;152723.88;;;16.05;45.66
49341;BME280;35209;51.050;13.678;2024-03-29T14:48:57;152756.28;;;16.18;44.11
49341;BME280;35209;51.050;13.678;2024-03-29T14:53:58;152747.19;;;16.14;45.02
49341;BME280;35209;51.050;13.678;2024-03-29T14:59:03;152739.47;;;16.11;43.66
49341;BME280;35209;51.050;13.678;2024-03-29T15:04:05;152726.44;;;16.06;44.06
49341;BME280;35209;51.050;13.678;2024-03-29T15:09:06;152734.25;;;16.09;44.60
49341;BME280;35209;51.050;13.678;2024-03-29T15:14:07;152709.63;;;16.00;44.79
49341;BME280;35209;51.050;13.678;2024-03-29T15:19:10;152673.34;;;15.85;44.80
49341;BME280;35209;51.050;13.678;2024-03-29T15:24:11;152682.38;;;15.89;45.61
49341;BME280;35209;51.050;13.678;2024-03-29T15:29:12;152717.41;;;16.03;45.02
49341;BME280;35209;51.050;13.678;2024-03-29T15:34:13;152621.47;;;15.65;45.93
49341;BME280;35209;51.050;13.678;2024-03-29T15:39:14;152626.69;;;15.67;46.84
49341;BME280;35209;51.050;13.678;2024-03-29T15:44:20;152586.44;;;15.51;47.22
49341;BME280;35209;51.050;13.678;2024-03-29T15:49:22;152591.59;;;15.53;50.36
49341;BME280;35209;51.050;13.678;2024-03-29T15:54:22;152543.69;;;15.34;50.15
49341;BME280;35209;51.050;13.678;2024-03-29T15:59:23;152538.53;;;15.32;51.40
49341;BME280;35209;51.050;13.678;2024-03-29T16:04:24;152592.94;;;15.54;52.69
49341;BME280;35209;51.050;13.678;2024-03-29T16:09:25;152555.34;;;15.39;53.95
49341;BME280;35209;51.050;13.678;2024-03-29T16:14:26;152513.84;;;15.23;54.82
49341;BME280;35209;51.050;13.678;2024-03-29T16:19:29;152538.53;;;15.32;55.10
49341;BME280;35209;51.050;13.678;2024-03-29T16:24:30;152491.88;;;15.14;57.78
49341;BME280;35209;51.050;13.678;2024-03-29T16:29:31;152493.16;;;15.14;55.98
49341;BME280;35209;51.050;13.678;2024-03-29T16:34:31;152468.53;;;15.05;59.32
49341;BME280;35209;51.050;13.678;2024-03-29T16:39:32;152446.50;;;14.96;57.49
49341;BME280;35209;51.050;13.678;2024-03-29T16:44:33;152437.47;;;14.93;57.17
49341;BME280;35209;51.050;13.678;2024-03-29T16:49:34;152465.94;;;15.04;57.69
49341;BME280;35209;51.050;13.678;2024-03-29T16:54:34;152401.16;;;14.78;59.50
49341;BME280;35209;51.050;13.678;2024-03-29T16:59:35;152385.63;;;14.72;62.63
49341;BME280;35209;51.050;13.678;2024-03-29T17:04:37;152332.53;;;14.51;63.20
49341;BME280;35209;51.050;13.678;2024-03-29T17:09:40;152331.25;;;14.51;62.98
49341;BME280;35209;51.050;13.678;2024-03-29T17:14:41;152274.22;;;14.28;64.47
49341;BME280;35209;51.050;13.678;2024-03-29T17:19:42;152250.91;;;14.19;67.48
49341;BME280;35209;51.050;13.678;2024-03-29T17:24:42;152214.69;;;14.05;68.33
49341;BME280;35209;51.050;13.678;2024-03-29T17:29:43;152285.88;;;14.33;66.82
49341;BME280;35209;51.050;13.678;2024-03-29T17:34:44;152260.00;;;14.23;66.50
49341;BME280;35209;51.050;13.678;2024-03-29T17:39:45;152188.81;;;13.95;66.51
49341;BME280;35209;51.050;13.678;2024-03-29T17:44:46;152125.38;;;13.70;66.34
49341;BME280;35209;51.050;13.678;2024-03-29T17:49:46;152129.25;;;13.71;68.11
49341;BME280;35209;51.050;13.678;2024-03-29T17:54:47;152085.25;;;13.54;68.71
49341;BME280;35209;51.050;13.678;2024-03-29T17:59:48;152067.16;;;13.47;69.22
49341;BME280;35209;51.050;13.678;2024-03-29T18:04:49;152003.69;;;13.22;70.23
49341;BME280;35209;51.050;13.678;2024-03-29T18:09:50;151988.19;;;13.16;70.81
49341;BME280;35209;51.050;13.678;2024-03-29T18:14:51;151984.28;;;13.14;71.74
49341;BME280;35209;51.050;13.678;2024-03-29T18:19:53;151936.41;;;12.95;72.28
49341;BME280;35209;51.050;13.678;2024-03-29T18:24:54;151954.56;;;13.02;70.98
49341;BME280;35209;51.050;13.678;2024-03-29T18:29:55;151884.66;;;12.75;72.38
49341;BME280;35209;51.050;13.678;2024-03-29T18:34:55;151914.44;;;12.86;71.34
49341;BME280;35209;51.050;13.678;2024-03-29T18:39:56;151839.41;;;12.57;72.19
49341;BME280;35209;51.050;13.678;2024-03-29T18:44:57;151854.94;;;12.63;73.12
49341;BME280;35209;51.050;13.678;2024-03-29T18:49:58;151844.59;;;12.59;71.04
49341;BME280;35209;51.050;13.678;2024-03-29T18:55:01;151818.75;;;12.49;70.95
49341;BME280;35209;51.050;13.678;2024-03-29T19:00:06;151748.91;;;12.21;71.75
49341;BME280;35209;51.050;13.678;2024-03-29T19:05:07;151748.91;;;12.21;71.40
49341;BME280;35209;51.050;13.678;2024-03-29T19:10:08;151763.16;;;12.27;71.10
49341;BME280;35209;51.050;13.678;2024-03-29T19:15:09;151782.53;;;12.34;70.49
49341;BME280;35209;51.050;13.678;2024-03-29T19:20:11;151880.81;;;12.73;68.16
49341;BME280;35209;51.050;13.678;2024-03-29T19:25:11;151835.53;;;12.55;67.67
49341;BME280;35209;51.050;13.678;2024-03-29T19:30:12;151847.19;;;12.60;67.41
49341;BME280;35209;51.050;13.678;2024-03-29T19:35:13;151830.41;;;12.53;66.90
49341;BME280;35209;51.050;13.678;2024-03-29T19:40:14;151840.75;;;12.57;68.46
49341;BME280;35209;51.050;13.678;2024-03-29T19:45:15;151767.03;;;12.28;69.00
49341;BME280;35209;51.050;13.678;2024-03-29T19:50:17;151688.16;;;11.97;70.07
49341;BME280;35209;51.050;13.678;2024-03-29T19:55:18;151679.13;;;11.94;70.64
49341;BME280;35209;51.050;13.678;2024-03-29T20:00:20;151670.06;;;11.90;71.60
49341;BME280;35209;51.050;13.678;2024-03-29T20:05:21;151655.84;;;11.84;73.54
49341;BME280;35209;51.050;13.678;2024-03-29T20:10:25;151608.00;;;11.66;74.35
49341;BME280;35209;51.050;13.678;2024-03-29T20:15:25;151543.38;;;11.40;75.06
49341;BME280;35209;51.050;13.678;2024-03-29T20:20:26;151504.66;;;11.25;75.55
49341;BME280;35209;51.050;13.678;2024-03-29T20:25:27;151471.06;;;11.11;76.17
49341;BME280;35209;51.050;13.678;2024-03-29T20:30:29;151433.56;;;10.97;76.67
49341;BME280;35209;51.050;13.678;2024-03-29T20:35:31;151456.81;;;11.06;77.28
49341;BME280;35209;51.050;13.678;2024-03-29T20:40:32;151424.53;;;10.93;78.95
49341;BME280;35209;51.050;13.678;2024-03-29T20:45:33;151409.06;;;10.87;80.03
49341;BME280;35209;51.050;13.678;2024-03-29T20:50:33;151361.28;;;10.68;80.87
49341;BME280;35209;51.050;13.678;2024-03-29T20:55:34;151362.56;;;10.69;81.42
49341;BME280;35209;51.050;13.678;2024-03-29T21:00:35;151358.72;;;10.67;81.69
49341;BME280;35209;51.050;13.678;2024-03-29T21:05:36;151292.84;;;10.41;82.51
49341;BME280;35209;51.050;13.678;2024-03-29T21:10:44;151268.34;;;10.31;83.28
49341;BME280;35209;51.050;13.678;2024-03-29T21:15:45;151310.91;;;10.48;81.49
49341;BME280;35209;51.050;13.678;2024-03-29T21:20:46;151232.09;;;10.17;82.38
49341;BME280;35209;51.050;13.678;2024-03-29T21:25:47;151188.22;;;10.00;82.79
49341;BME280;35209;51.050;13.678;2024-03-29T21:30:48;151165.00;;;9.91;83.36
49341;BME280;35209;51.050;13.678;2024-03-29T21:35:49;151135.34;;;9.79;83.87
49341;BME280;35209;51.050;13.678;2024-03-29T21:40:50;151177.88;;;9.96;84.13
49341;BME280;35209;51.050;13.678;2024-03-29T21:45:50;151180.50;;;9.97;83.87
49341;BME280;35209;51.050;13.678;2024-03-29T21:50:51;151158.56;;;9.88;83.14
49341;BME280;35209;51.050;13.678;2024-03-29T21:55:53;151155.94;;;9.87;82.50
49341;BME280;35209;51.050;13.678;2024-03-29T22:00:54;151118.53;;;9.72;83.20
49341;BME280;35209;51.050;13.678;2024-03-29T22:05:55;151100.50;;;9.65;84.43
49341;BME280;35209;51.050;13.678;2024-03-29T22:10:56;151110.78;;;9.69;85.32
49341;BME280;35209;51.050;13.678;2024-03-29T22:15:57;151150.81;;;9.85;87.26
49341;BME280;35209;51.050;13.678;2024-03-29T22:20:58;151195.97;;;10.03;87.53
49341;BME280;35209;51.050;13.678;2024-03-29T22:25:58;151229.53;;;10.16;88.33
49341;BME280;35209;51.050;13.678;2024-03-29T22:30:59;151239.88;;;10.20;88.57
49341;BME280;35209;51.050;13.678;2024-03-29T22:36:01;151286.38;;;10.39;88.94
49341;BME280;35209;51.050;13.678;2024-03-29T22:41:01;151285.09;;;10.38;89.01
49341;BME280;35209;51.050;13.678;2024-03-29T22:46:02;151305.75;;;10.46;89.12
49341;BME280;35209;51.050;13.678;2024-03-29T22:51:03;151314.81;;;10.50;89.42
49341;BME280;35209;51.050;13.678;2024-03-29T22:56:04;151330.28;;;10.56;89.74
49341;BME280;35209;51.050;13.678;2024-03-29T23:01:05;151338.03;;;10.59;89.57
49341;BME280;35209;51.050;13.678;2024-03-29T23:06:06;151325.13;;;10.54;89.78
49341;BME280;35209;51.050;13.678;2024-03-29T23:11:07;151329.00;;;10.55;89.76
49341;BME280;35209;51.050;13.678;2024-03-29T23:16:07;151290.22;;;10.40;90.65
49341;BME280;35209;51.050;13.678;2024-03-29T23:21:09;151264.44;;;10.30;91.39
49341;BME280;35209;51.050;13.678;2024-03-29T23:26:10;151250.25;;;10.24;91.70
49341;BME280;35209;51.050;13.678;2024-03-29T23:31:16;151239.88;;;10.20;92.07
49341;BME280;35209;51.050;13.678;2024-03-29T23:36:17;151220.50;;;10.13;92.47
49341;BME280;35209;51.050;13.678;2024-03-29T23:41:18;151224.41;;;10.14;92.88
49341;BME280;35209;51.050;13.678;2024-03-29T23:46:19;151206.31;;;10.07;93.64
49341;BME280;35209;51.050;13.678;2024-03-29T23:51:19;151194.69;;;10.02;94.11
49341;BME280;35209;51.050;13.678;2024-03-29T23:56:20;151185.66;;;9.99;94.86
